Terminal Aerodrome Forecast
Issued by NWS

Home | Current Version | Previous Version | Text Only | Print | Product List | Glossary On
Versions: 1 2 3 4 5 6 7 8 9 10 11 12 13 14 15 16 17 18 19 20 21 22 23
000
FTUS41 KAKQ 262330
TAFPHF
TAF
KPHF 262330Z 2700/2724 12006KT P6SM BKN050
     FM270600 12006KT 6SM -SHRA OVC025
     FM270900 13007KT 4SM -SHRA OVC015
     FM271200 17006KT P6SM OVC010
     FM271500 21007KT P6SM BKN025
     FM271800 23009KT P6SM BKN035=

USA.gov is the U.S. government's official web portal to all federal, state and local government web resources and services.